Flight Track Log - Related Links

Times and Time Zones

All times are in EDT time to prevent confusion due to time zone crossing. See the N8932U flight status page for this flight to view local times or setup timezone preferences in your user account.

Time Position Orientation Groundspeed Altitude Reporting Facility
EDT Latitude Longitude Course Direction KTS MPH feet Rate Location/Type
Thu 08:02:01 AM 37.7225 -87.1333 146° Southeast 121 139 2,500  Level Indianapolis Center
Thu 08:03:02 AM 37.6947 -87.1161 154° Southeast 112 129 3,400 829 Climbing Indianapolis Center
Thu 08:04:04 AM 37.6667 -87.0936 148° Southeast 113 130 4,200 774 Climbing Indianapolis Center
Thu 08:05:06 AM 37.6369 -87.0672 145° Southeast 125 144 5,000 780 Climbing Indianapolis Center
Thu 08:06:00 AM 37.7297 -87.1591 146° Southeast  Level FlightAware Approximate
Thu 08:06:07 AM 37.6053 -87.0447 151° Southeast 127 146 5,800  Level Indianapolis Center
Thu 08:07:00 AM 37.6931 -87.1283 146° Southeast  Level FlightAware Approximate
Thu 08:07:09 AM 37.5711 -87.0269 158° South 128 147 6,500  Level Indianapolis Center
Thu 08:08:11 AM 37.5386 -87.0056 152° Southeast 129 148 6,900 244 Climbing Indianapolis Center
Thu 08:09:12 AM 37.4989 -86.9764 150° Southeast 154 177 7,000  Climbing Indianapolis Center
Thu 08:10:14 AM 37.4539 -86.9531 158° South 170 196 6,900 48 Descending Indianapolis Center
Thu 08:11:16 AM 37.4014 -86.9175 152° Southeast 174 200 7,100 52 Climbing Indianapolis Center
Thu 08:12:09 AM 37.3647 -86.8925 152° Southeast 174 200 7,000  Descending Memphis Center
Thu 08:13:11 AM 37.3189 -86.8658 155° Southeast 174 200 7,100 48 Climbing Memphis Center
Thu 08:14:13 AM 37.2750 -86.8408 156° South 174 200 7,100  Level Memphis Center
Thu 08:15:14 AM 37.2308 -86.8153 155° Southeast 174 200 7,100  Level Memphis Center
Thu 08:16:16 AM 37.1858 -86.7900 156° South 174 200 7,100 -48 Level Memphis Center
Thu 08:17:18 AM 37.1403 -86.7628 155° Southeast 175 201 7,000  Descending Memphis Center
Thu 08:18:19 AM 37.0964 -86.7361 154° Southeast 175 201 7,100 49 Climbing Memphis Center
Thu 08:19:21 AM 37.0525 -86.7128 157° South 173 199 7,100  Level Memphis Center
Thu 08:20:23 AM 36.9997 -86.6828 156° South 174 200 7,100  Level Memphis Center
Thu 08:21:24 AM 36.9553 -86.6558 154° Southeast 174 200 7,100  Level Memphis Center
Thu 08:22:26 AM 36.9108 -86.6314 156° South 174 200 7,100  Level Memphis Center
Thu 08:23:28 AM 36.8658 -86.6058 156° South 175 201 7,100  Level Memphis Center
Thu 08:24:29 AM 36.8228 -86.5814 156° South 174 200 7,100  Level Memphis Center
Thu 08:25:31 AM 36.7781 -86.5572 157° South 173 199 7,100  Level Memphis Center
Thu 08:26:33 AM 36.7344 -86.5336 157° South 173 199 7,100  Level Memphis Center
Thu 08:27:35 AM 36.6906 -86.5106 157° South 172 198 7,100  Level Memphis Center
Thu 08:28:36 AM 36.6464 -86.4875 157° South 172 198 7,100  Level Memphis Center
Thu 08:29:38 AM 36.6025 -86.4644 157° South 172 198 7,100  Level Memphis Center
Thu 08:30:40 AM 36.5519 -86.4364 156° South 170 196 7,100  Level Memphis Center
Thu 08:31:41 AM 36.5089 -86.4131 156° South 169 194 7,100  Level Memphis Center
Thu 08:32:43 AM 36.4672 -86.3844 151° Southeast 169 194 7,100  Level Memphis Center
Thu 08:33:45 AM 36.4253 -86.3564 152° Southeast 169 194 7,100  Level Memphis Center
Thu 08:34:47 AM 36.3836 -86.3272 151° Southeast 169 194 7,100  Level Memphis Center
Thu 08:35:48 AM 36.3397 -86.3042 157° South 169 194 7,100  Level Memphis Center
Thu 08:36:50 AM 36.2958 -86.2789 155° Southeast 169 194 7,100  Level Memphis Center
Thu 08:37:52 AM 36.2531 -86.2525 154° Southeast 169 194 7,100  Level Memphis Center
Thu 08:38:54 AM 36.2086 -86.2283 156° South 170 196 7,100  Level Memphis Center
Thu 08:39:56 AM 36.1650 -86.2003 153° Southeast 172 198 7,100  Level Memphis Center
Thu 08:40:58 AM 36.1147 -86.1703 154° Southeast 172 198 7,100  Level Memphis Center
Thu 08:41:59 AM 36.0714 -86.1428 153° Southeast 172 198 7,100  Level Memphis Center
Thu 08:43:01 AM 36.0289 -86.1161 153° Southeast 172 198 7,100 -48 Level Memphis Center
Thu 08:44:03 AM 35.9861 -86.0889 153° Southeast 172 198 7,000  Descending Memphis Center
Thu 08:45:05 AM 35.9414 -86.0642 156° South 172 198 7,100 48 Climbing Memphis Center
Thu 08:46:07 AM 35.8983 -86.0392 155° Southeast 172 198 7,100  Level Memphis Center
Thu 08:47:09 AM 35.8556 -86.0139 154° Southeast 171 197 7,100  Level Memphis Center
Thu 08:48:11 AM 35.8122 -85.9889 155° Southeast 171 197 7,100  Level Memphis Center
Thu 08:49:13 AM 35.7622 -85.9606 155° Southeast 171 197 7,100  Level Memphis Center
Thu 08:50:15 AM 35.7175 -85.9389 159° South 171 197 7,100  Level Memphis Center
Thu 08:51:17 AM 35.6744 -85.9139 155° Southeast 171 197 7,100  Level Memphis Center
Thu 08:52:19 AM 35.6303 -85.8897 156° South 171 197 7,100 48 Level Memphis Center
Thu 08:53:21 AM 35.5850 -85.8642 155° Southeast 171 197 7,200 48 Climbing Memphis Center
Thu 08:54:23 AM 35.5422 -85.8389 154° Southeast 170 196 7,200  Level Memphis Center
Thu 08:55:25 AM 35.4994 -85.8147 155° Southeast 170 196 7,200  Level Memphis Center
Thu 08:56:27 AM 35.4561 -85.7897 155° Southeast 171 197 7,200  Level Memphis Center
Thu 08:57:30 AM 35.4125 -85.7667 157° South 171 197 7,200  Level Memphis Center
Thu 08:58:32 AM 35.3608 -85.7375 155° Southeast 171 197 7,200  Level Memphis Center
Thu 08:59:34 AM 35.3183 -85.7131 155° Southeast 171 197 7,200 -48 Level Memphis Center
Thu 09:00:36 AM 35.2747 -85.6867 154° Southeast 171 197 7,100 -48 Descending Memphis Center
Thu 09:01:38 AM 35.2319 -85.6608 154° Southeast 171 197 7,100  Level Memphis Center
Thu 09:02:40 AM 35.1886 -85.6333 153° Southeast 173 199 7,100  Level Memphis Center
Thu 09:03:42 AM 35.1453 -85.6067 153° Southeast 173 199 7,100  Level Memphis Center
Thu 09:04:44 AM 35.0947 -85.5767 154° Southeast 173 199 7,100 97 Level Memphis Center
Thu 09:05:46 AM 35.0525 -85.5519 154° Southeast 173 199 7,300  Climbing Memphis Center
Thu 09:06:48 AM 35.0092 -85.5281 156° South 171 197 7,100 -48 Descending Memphis Center
Thu 09:07:50 AM 34.9653 -85.5106 162° South 171 197 7,200  Climbing Memphis Center
Thu 09:08:52 AM 34.9200 -85.5117 181° South 164 189 7,100 -97 Descending Memphis Center
Thu 09:09:54 AM 34.8639 -85.5067 176° South 167 192 7,000 97 Descending Memphis Center
Thu 09:10:56 AM 34.8183 -85.5028 176° South 167 192 7,300 144 Climbing Memphis Center
Thu 09:11:59 AM 34.7736 -85.4994 176° South 162 186 7,300  Level Memphis Center
Thu 09:13:01 AM 34.7292 -85.4967 177° South 162 186 7,300 -30 Level Memphis Center
Thu 09:15:17 AM 34.6247 -85.4903 177° South 159 183 7,200 -31 Descending Atlanta Center
Thu 09:16:17 AM 34.5808 -85.4894 179° South 159 183 7,200  Level Atlanta Center
Thu 09:17:17 AM 34.5328 -85.4886 179° South 159 183 7,200  Level Atlanta Center
Thu 09:18:17 AM 34.4892 -85.4853 176° South 159 183 7,200  Level Atlanta Center
Thu 09:19:17 AM 34.4433 -85.4819 177° South 159 183 7,200  Level Atlanta Center
Thu 09:20:17 AM 34.3975 -85.4764 174° South 159 183 7,200  Level Atlanta Center
Thu 09:21:17 AM 34.3494 -85.4731 177° South 164 189 7,200  Level Atlanta Center
Thu 09:22:17 AM 34.3056 -85.4697 176° South 164 189 7,200  Level Atlanta Center
Thu 09:23:17 AM 34.2619 -85.4639 174° South 164 189 7,200  Level Atlanta Center
Thu 09:24:17 AM 34.2161 -85.4556 171° South 164 189 7,200  Level Atlanta Center
Thu 09:25:17 AM 34.1703 -85.4497 174° South 164 189 7,200  Level Atlanta Center
Thu 09:26:17 AM 34.1244 -85.4492 179° South 159 183 7,200  Level Atlanta Center
Thu 09:27:17 AM 34.0783 -85.4458 177° South 159 183 7,200  Level Atlanta Center
Thu 09:28:17 AM 34.0325 -85.4375 171° South 164 189 7,200  Level Atlanta Center
Thu 09:29:17 AM 33.9847 -85.4367 179° South 164 189 7,200  Level Atlanta Center
Thu 09:30:17 AM 33.9408 -85.4336 177° South 164 189 7,200 50 Level Atlanta Center
Thu 09:31:17 AM 33.8928 -85.4328 179° South 164 189 7,300 50 Climbing Atlanta Center
Thu 09:32:17 AM 33.8406 -85.4294 177° South 164 189 7,300 -50 Level Atlanta Center
Thu 09:33:17 AM 33.7969 -85.4261 176° South 171 197 7,200 -50 Descending Atlanta Center
Thu 09:34:17 AM 33.7489 -85.4253 179° South 171 197 7,200 50 Level Atlanta Center
Thu 09:35:17 AM 33.7050 -85.4272 182° South 176 203 7,300  Climbing Atlanta Center
Thu 09:36:17 AM 33.6572 -85.4214 174° South 176 203 7,200 -100 Descending Atlanta Center
Thu 09:37:17 AM 33.6092 -85.4206 179° South 176 203 7,100 -50 Descending Atlanta Center
Thu 09:38:17 AM 33.5614 -85.4050 165° South 176 203 7,100 50 Level Atlanta Center
Thu 09:39:17 AM 33.5178 -85.3794 154° Southeast 176 203 7,200 50 Climbing Atlanta Center
Thu 09:40:17 AM 33.4761 -85.3539 153° Southeast 176 203 7,200  Level Atlanta Center
Thu 09:41:17 AM 33.4328 -85.3233 150° Southeast 176 203 7,200  Level Atlanta Center
Thu 09:42:17 AM 33.3914 -85.2928 148° Southeast 176 203 7,200 -50 Level Atlanta Center
Thu 09:43:17 AM 33.3497 -85.2672 153° Southeast 176 203 7,100  Descending Atlanta Center
Thu 09:44:57 AM 33.2833 -85.2167 148° Southeast 172 198 7,200 38 Climbing Atlanta TRACON
Thu 09:45:57 AM 33.2333 -85.1833 151° Southeast 175 201 7,200  Level Atlanta TRACON
Thu 09:46:57 AM 33.1833 -85.1667 164° South 174 200 7,200 48 Level Atlanta TRACON
Thu 09:48:03 AM 33.1500 -85.1167 129° Southeast 176 203 7,300  Climbing Atlanta TRACON
Thu 09:49:03 AM 33.1000 -85.1000 164° South 175 201 7,200 -105 Descending Atlanta TRACON
Thu 09:49:57 AM 33.0667 -85.0667 140° Southeast 173 199 7,100 -50 Descending Atlanta TRACON
Thu 09:51:03 AM 33.0167 -85.0333 151° Southeast 173 199 7,100  Level Atlanta TRACON
Thu 09:52:03 AM 32.9833 -85.0000 140° Southeast 176 203 7,100 50 Level Atlanta TRACON
Thu 09:53:03 AM 32.9500 -84.9500 128° Southeast 173 199 7,200 33 Climbing Atlanta TRACON
Thu 09:55:03 AM 32.8833 -84.8833 140° Southeast 174 200 7,200  Level Atlanta TRACON
Thu 09:56:03 AM 32.8500 -84.8333 128° Southeast 175 201 7,200  Level Atlanta TRACON
Thu 09:57:03 AM 32.8167 -84.8000 140° Southeast 174 200 7,200  Level Atlanta TRACON
Thu 09:58:03 AM 32.7833 -84.7500 128° Southeast 177 204 7,200  Level Atlanta TRACON
Thu 09:59:58 AM 32.7167 -84.6833 140° Southeast 174 200 7,200  Level Atlanta TRACON
Thu 10:00:58 AM 32.6833 -84.6333 128° Southeast 175 201 7,200  Level Atlanta TRACON
Thu 10:01:52 AM 32.6500 -84.6000 140° Southeast 174 200 7,200  Level Atlanta TRACON
Thu 10:02:52 AM 32.6167 -84.5500 128° Southeast 173 199 7,200 -50 Level Atlanta TRACON
Thu 10:03:52 AM 32.5833 -84.5167 140° Southeast 174 200 7,100 -50 Descending Atlanta TRACON
Thu 10:04:52 AM 32.5500 -84.4833 140° Southeast 170 196 7,100 48 Level Atlanta TRACON
Thu 10:05:58 AM 32.5000 -84.4667 164° South 169 194 7,200 45 Climbing Atlanta TRACON
Thu 10:07:04 AM 32.4500 -84.4167 140° Southeast 168 193 7,200  Level Atlanta TRACON
Thu 10:07:58 AM 32.4333 -84.3833 121° Southeast 170 196 7,200  Level Atlanta TRACON
Thu 10:08:52 AM 32.4000 -84.3667 157° South 169 194 7,200 -50 Level Atlanta TRACON
Thu 10:09:58 AM 32.3500 -84.3333 151° Southeast 171 197 7,100 -48 Descending Atlanta TRACON
Thu 10:10:58 AM 32.3167 -84.3000 140° Southeast 171 197 7,100 46 Level Atlanta TRACON
Thu 10:12:08 AM 32.2656 -84.2561 144° Southeast 173 199 7,200 32 Climbing Jacksonville Center
Thu 10:14:08 AM 32.1806 -84.2083 155° Southeast 168 193 7,200  Level Jacksonville Center
Thu 10:15:08 AM 32.1369 -84.1856 156° South 168 193 7,200  Level Jacksonville Center
Thu 10:16:08 AM 32.0956 -84.1628 155° Southeast 168 193 7,200 -50 Level Jacksonville Center
Thu 10:17:08 AM 32.0517 -84.1428 159° South 168 193 7,100 -50 Descending Jacksonville Center
Thu 10:18:08 AM 32.0081 -84.1225 158° South 168 193 7,100 50 Level Jacksonville Center
Thu 10:19:08 AM 31.9667 -84.1022 157° South 168 193 7,200 50 Climbing Jacksonville Center
Thu 10:20:08 AM 31.9250 -84.0797 155° Southeast 168 193 7,200  Level Jacksonville Center
Thu 10:21:08 AM 31.8814 -84.0572 156° South 168 193 7,200  Level Jacksonville Center
Thu 10:22:08 AM 31.8400 -84.0347 155° Southeast 168 193 7,200 -50 Level Jacksonville Center
Thu 10:23:08 AM 31.7983 -84.0097 153° Southeast 168 193 7,100  Descending Jacksonville Center
Thu 10:25:08 AM 31.7153 -83.9622 154° Southeast 168 193 7,200 33 Climbing Jacksonville Center
Thu 10:26:08 AM 31.6736 -83.9397 155° Southeast 168 193 7,200 50 Level Jacksonville Center
Thu 10:27:08 AM 31.6322 -83.9150 153° Southeast 168 193 7,300 -50 Climbing Jacksonville Center
Thu 10:28:08 AM 31.5864 -83.8950 160° South 168 193 7,100 -100 Descending Jacksonville Center
Thu 10:29:08 AM 31.5447 -83.8700 153° Southeast 168 193 7,100  Level Jacksonville Center
Thu 10:29:22 AM 31.5344 -83.8675 168° South 170 196 7,100 -100 Level Jacksonville Center
Thu 10:30:08 AM 31.5031 -83.8478 152° Southeast 168 193 7,000  Descending Jacksonville Center
Thu 10:30:23 AM 31.4928 -83.8428 157° South 169 194 7,100 200 Climbing Jacksonville Center
Thu 10:31:08 AM 31.4617 -83.8231 152° Southeast 168 193 7,200  Climbing Jacksonville Center
Thu 10:31:23 AM 31.4511 -83.8181 158° South 167 192 7,100  Descending Jacksonville Center
Thu 10:32:08 AM 31.4181 -83.8006 156° South 173 199 7,200  Climbing Jacksonville Center
Thu 10:32:24 AM 31.4075 -83.7956 158° South 167 192 7,100  Descending Jacksonville Center
Thu 10:33:08 AM 31.3783 -83.7758 150° Southeast 173 199 7,200  Climbing Jacksonville Center
Thu 10:33:24 AM 31.3681 -83.7733 168° South 168 193 7,100 -100 Descending Jacksonville Center
Thu 10:34:08 AM 31.3347 -83.7511 150° Southeast 173 199 7,100  Level Jacksonville Center
Thu 10:35:08 AM 31.2931 -83.7242 151° Southeast 173 199 7,100  Level Jacksonville Center
Thu 10:35:26 AM 31.2828 -83.7214 167° South 169 194 7,100 600 Level Jacksonville Center
Thu 10:37:08 AM 31.2203 -83.6797 150° Southeast 153 176 8,300 744 Climbing Jacksonville Center
Thu 10:37:27 AM 31.2078 -83.6747 161° South 125 144 8,600 700 Climbing Jacksonville Center
Thu 10:38:08 AM 31.1869 -83.6600 149° Southeast 140 161 9,000 500 Climbing Jacksonville Center
Thu 10:38:27 AM 31.1767 -83.6575 168° South 130 150 9,100 150 Climbing Jacksonville Center
Thu 10:39:28 AM 31.1350 -83.6353 155° Southeast 159 183 9,200 49 Climbing Jacksonville Center
Thu 10:40:29 AM 31.0956 -83.6108 152° Southeast 171 197 9,200 -50 Level Jacksonville Center
Thu 10:41:29 AM 31.0517 -83.5861 154° Southeast 172 198 9,100 -50 Descending Jacksonville Center
Thu 10:42:30 AM 31.0081 -83.5639 156° South 172 198 9,100 49 Level Jacksonville Center
Thu 10:43:31 AM 30.9644 -83.5419 157° South 170 196 9,200 50 Climbing Jacksonville Center
Thu 10:44:31 AM 30.9186 -83.5172 155° Southeast 172 198 9,200  Level Jacksonville Center
Thu 10:45:21 AM 30.8853 -83.4953 151° Southeast 168 193 9,200  Level Jacksonville Center
Thu 10:45:32 AM 30.8769 -83.4953 180° South 170 196 9,200  Level Jacksonville Center
Thu 10:46:33 AM 30.8331 -83.4708 154° Southeast 168 193 9,200  Level Jacksonville Center
Thu 10:47:20 AM 30.8081 -83.4536 149° Southeast 176 203 9,200 36 Level Jacksonville Center
Thu 10:49:21 AM 30.7292 -83.3928 146° Southeast 176 203 9,300  Climbing Jacksonville Center
Thu 10:51:21 AM 30.6500 -83.3319 147° Southeast 171 197 9,200 -33 Descending Jacksonville Center
Thu 10:52:21 AM 30.6083 -83.3028 149° Southeast 166 191 9,200  Level Jacksonville Center
Thu 10:53:20 AM 30.5644 -83.2786 155° Southeast 166 191 9,200  Level Jacksonville Center
Thu 10:54:21 AM 30.5269 -83.2494 146° Southeast 166 191 9,200  Level Jacksonville Center
Thu 10:56:21 AM 30.4519 -83.1744 139° Southeast 171 197 9,200 -33 Level Jacksonville Center
Thu 10:57:21 AM 30.4167 -83.1383 139° Southeast 176 203 9,100 -50 Descending Jacksonville Center
Thu 10:58:21 AM 30.3792 -83.1019 140° Southeast 176 203 9,100  Level Jacksonville Center
Thu 10:59:20 AM 30.3394 -83.0731 148° Southeast 176 203 9,100 50 Level Jacksonville Center
Thu 11:00:21 AM 30.3019 -83.0417 144° Southeast 171 197 9,200 50 Climbing Jacksonville Center
Thu 11:01:21 AM 30.2664 -83.0081 141° Southeast 171 197 9,200 50 Level Jacksonville Center
Thu 11:02:21 AM 30.2289 -82.9767 144° Southeast 171 197 9,300 350 Climbing Jacksonville Center
Thu 11:03:21 AM 30.1914 -82.9550 153° Southeast 163 188 9,900 550 Climbing Jacksonville Center
Thu 11:04:21 AM 30.1581 -82.9383 157° South 148 170 10,400 500 Climbing Jacksonville Center
Thu 11:05:21 AM 30.1244 -82.9214 156° South 138 159 10,900 350 Climbing Jacksonville Center
Thu 11:06:21 AM 30.0869 -82.9069 162° South 133 153 11,100 101 Climbing Jacksonville Center
Thu 11:07:20 AM 30.0453 -82.8903 161° South 138 159 11,100 -50 Level Jacksonville Center
Thu 11:08:21 AM 29.9992 -82.8758 165° South 160 184 11,000 -50 Descending Jacksonville Center
Thu 11:09:21 AM 29.9556 -82.8589 161° South 165 190 11,000 -50 Level Jacksonville Center
Thu 11:10:21 AM 29.9178 -82.8328 149° Southeast 159 183 10,900 50 Descending Jacksonville Center
Thu 11:11:21 AM 29.8864 -82.7919 132° Southeast 164 189 11,100 50 Climbing Jacksonville Center
Thu 11:12:21 AM 29.8553 -82.7536 133° Southeast 170 196 11,000 -101 Descending Jacksonville Center
Thu 11:13:20 AM 29.8239 -82.7153 133° Southeast 170 196 10,900 -50 Descending Jacksonville Center
Thu 11:14:20 AM 29.7925 -82.6772 134° Southeast 170 196 10,900  Level Jacksonville Center
Thu 11:15:21 AM 29.7653 -82.6414 131° Southeast 165 190 10,900 50 Level Jacksonville Center
Thu 11:16:20 AM 29.7317 -82.6103 141° Southeast 165 190 11,000 50 Climbing Jacksonville Center
Thu 11:17:21 AM 29.6878 -82.5842 153° Southeast 165 190 11,000 -50 Level Jacksonville Center
Thu 11:18:21 AM 29.6419 -82.5700 165° South 160 184 10,900 -233 Descending Jacksonville Center
Thu 11:19:04 AM 29.6106 -82.5628 169° South 161 185 10,600 -400 Descending Jacksonville Center
Thu 11:19:21 AM 29.6022 -82.5558 144° Southeast 159 183 10,500 -627 Descending Jacksonville Center
Thu 11:20:11 AM 29.5625 -82.5439 165° South 183 211 9,900 -600 Descending Jacksonville Center
Thu 11:20:21 AM 29.5542 -82.5369 144° Southeast 169 194 9,900 -689 Level Jacksonville Center
Thu 11:21:12 AM 29.5164 -82.5250 165° South 181 208 9,200 -824 Descending Jacksonville Center
Thu 11:23:00 AM 29.4467 -82.4925 158° South  Level FlightAware Approximate
Thu 11:30:00 AM 29.1509 -82.3551 158° South  Level FlightAware Approximate
Thu 11:31:00 AM 29.1087 -82.3355 158° South  Level FlightAware Approximate
Thu 11:32:00 AM 29.0664 -82.3160 158° South  Level FlightAware Approximate
Thu 11:33:00 AM 29.0241 -82.2964 158° South  Level FlightAware Approximate
Thu 11:34:00 AM 28.9818 -82.2769 158° South  Level FlightAware Approximate
Thu 11:35:00 AM 28.9396 -82.2574 158° South  Level FlightAware Approximate
Thu 11:36:00 AM 28.8973 -82.2379 158° South  Level FlightAware Approximate
Thu 11:37:00 AM 28.8550 -82.2185 158° South  Level FlightAware Approximate
Thu 11:38:00 AM 28.8127 -82.1990 158° South  Level FlightAware Approximate
Thu 11:39:00 AM 28.7704 -82.1796 158° South  Level FlightAware Approximate
Thu 11:40:00 AM 28.7281 -82.1601 158° South  Level FlightAware Approximate
Thu 11:41:00 AM 28.6858 -82.1407 158° South  Level FlightAware Approximate
Thu 11:42:00 AM 28.6435 -82.1214 158° South  Level FlightAware Approximate
Thu 11:43:00 AM 28.5977 -82.1107 172° South  Level FlightAware Approximate
Thu 11:44:00 AM 28.5526 -82.1032 172° South  Level FlightAware Approximate
Thu 11:45:00 AM 28.5074 -82.0965 173° South  Level FlightAware Approximate
Thu 11:46:00 AM 28.4621 -82.0905 173° South  Level FlightAware Approximate
Thu 11:47:00 AM 28.4168 -82.0844 173° South  Level FlightAware Approximate
Thu 11:48:00 AM 28.3716 -82.0784 173° South  Level FlightAware Approximate
Thu 11:49:00 AM 28.3263 -82.0724 173° South  Level FlightAware Approximate
Thu 11:50:00 AM 28.2811 -82.0660 166° South  Level FlightAware Approximate
Thu 11:51:00 AM 28.2369 -82.0534 166° South  Level FlightAware Approximate
Thu 11:52:00 AM 28.1926 -82.0407 166° South  Level FlightAware Approximate
Thu 11:53:00 AM 28.1480 -82.0307 173° South  Level FlightAware Approximate
Thu 11:54:00 AM 28.1028 -82.0242 173° South  Level FlightAware Approximate
Thu 11:55:00 AM 28.0575 -82.0177 173° South  Level FlightAware Approximate
Thu 11:56:00 AM 28.0120 -82.0167 180° South  Level FlightAware Approximate
Thu 11:57:00 AM 27.9833 -82.0167 180° South  Level FlightAware Approximate
Thu 11:58:00 AM 27.9889 -82.0186 41° Northeast  Level Estimated
Thu 11:59:00 AM 27.9833 -82.0167 180° South  Level FlightAware Approximate
Thu 12:00:00 PM 27.9889 -82.0186 41° Northeast  Level Estimated
Thu 12:01:00 PM 27.9833 -82.0167 180° South  Level FlightAware Approximate
Thu 12:02:00 PM 27.9889 -82.0186 41° Northeast  Level Estimated
Thu 12:03:00 PM 27.9833 -82.0167 180° South  Level FlightAware Approximate
Thu 12:04:00 PM 27.9889 -82.0186 41° Northeast  Level Estimated
Thu 12:05:00 PM 27.9833 -82.0167 180° South  Level FlightAware Approximate

Login

Don't have an account? Register now (free) for customized features, flight alerts, and more!